Time;durP1;ratioP1;P1;durP2;ratioP2;P2;SDS_P1;SDS_P2;PMS_P1;PMS_P2;Temp;Humidity;BMP_temperature;BMP_pressure;BME280_temperature;BME280_humidity;BME280_pressure;Samples;Min_cycle;Max_cycle;Signal;HPM_P1;HPM_P2
2023/03/21 00:00:57;;;;;;;3.33;1.88;;;;;;;;;;5094468;28;20027;-78
2023/03/21 00:03:23;;;;;;;1.60;1.50;;;;;;;;;;5077833;28;20074;-78
2023/03/21 00:05:50;;;;;;;2.30;1.52;;;;;;;;;;5077470;28;20028;-78
2023/03/21 00:08:16;;;;;;;3.20;1.40;;;;;;;;;;5094504;28;20030;-78
2023/03/21 00:10:42;;;;;;;1.73;1.48;;;;;;;;;;5095062;28;20051;-78
2023/03/21 00:13:07;;;;;;;2.58;1.52;;;;;;;;;;5095920;28;20471;-78
2023/03/21 00:15:33;;;;;;;2.40;1.55;;;;;;;;;;5094663;28;20028;-78
2023/03/21 00:18:02;;;;;;;3.67;1.55;;;;;;;;;;5094633;28;20028;-78
2023/03/21 00:20:29;;;;;;;1.48;1.38;;;;;;;;;;5094664;28;20051;-79
2023/03/21 00:22:55;;;;;;;1.80;1.50;;;;;;;;;;5094478;28;20020;-79
2023/03/21 00:25:20;;;;;;;1.63;1.45;;;;;;;;;;5093606;28;20036;-78
2023/03/21 00:27:45;;;;;;;2.00;1.60;;;;;;;;;;5094511;28;20028;-78
2023/03/21 00:30:11;;;;;;;1.60;1.42;;;;;;;;;;5095409;28;20058;-78
2023/03/21 00:32:37;;;;;;;1.70;1.52;;;;;;;;;;5078203;28;20114;-78
2023/03/21 00:35:02;;;;;;;1.73;1.38;;;;;;;;;;5095210;28;20028;-78
2023/03/21 00:37:27;;;;;;;2.85;1.60;;;;;;;;;;5077142;28;20032;-78
2023/03/21 00:39:53;;;;;;;2.38;1.50;;;;;;;;;;5094277;28;20033;-78
2023/03/21 00:42:18;;;;;;;1.75;1.50;;;;;;;;;;5094068;28;20454;-78
2023/03/21 00:44:44;;;;;;;1.70;1.60;;;;;;;;;;5094085;28;20382;-78
2023/03/21 00:47:11;;;;;;;3.90;1.95;;;;;;;;;;5095187;28;20059;-78
2023/03/21 00:49:37;;;;;;;1.42;1.33;;;;;;;;;;5093686;28;20059;-78
2023/03/21 00:52:08;;;;;;;1.92;1.63;;;;;;;;;;5077091;28;20545;-78
2023/03/21 00:54:35;;;;;;;2.53;1.70;;;;;;;;;;5094297;28;20020;-78
2023/03/21 00:57:02;;;;;;;1.75;1.40;;;;;;;;;;5094244;28;20519;-78
2023/03/21 00:59:28;;;;;;;1.95;1.70;;;;;;;;;;5094124;28;20059;-78
2023/03/21 01:01:53;;;;;;;1.60;1.50;;;;;;;;;;5093878;28;20031;-78
2023/03/21 01:04:19;;;;;;;1.85;1.60;;;;;;;;;;5093781;28;20036;-78
2023/03/21 01:06:46;;;;;;;2.17;1.48;;;;;;;;;;5095087;28;20031;-78
2023/03/21 01:09:17;;;;;;;1.80;1.50;;;;;;;;;;5093444;28;20055;-78
2023/03/21 01:11:42;;;;;;;3.53;1.45;;;;;;;;;;5094028;28;20044;-78
2023/03/21 01:14:09;;;;;;;2.05;1.58;;;;;;;;;;5093674;28;20077;-78
2023/03/21 01:16:35;;;;;;;1.50;1.40;;;;;;;;;;5093689;28;20097;-78
2023/03/21 01:19:01;;;;;;;1.50;1.40;;;;;;;;;;5076311;28;20031;-78
2023/03/21 01:21:26;;;;;;;1.77;1.27;;;;;;;;;;5093561;28;20032;-78
2023/03/21 01:23:52;;;;;;;2.70;1.42;;;;;;;;;;5093116;28;20061;-78
2023/03/21 01:26:17;;;;;;;2.20;1.50;;;;;;;;;;5076953;28;20038;-79
2023/03/21 01:28:44;;;;;;;1.52;1.40;;;;;;;;;;5094338;28;20382;-79
2023/03/21 01:31:12;;;;;;;1.50;1.40;;;;;;;;;;5076382;28;20435;-79
2023/03/21 01:33:38;;;;;;;1.80;1.38;;;;;;;;;;5092830;28;20074;-78
2023/03/21 01:36:05;;;;;;;1.67;1.52;;;;;;;;;;5093996;28;20027;-78
2023/03/21 01:38:30;;;;;;;2.92;1.60;;;;;;;;;;5092265;28;20051;-79
2023/03/21 01:40:55;;;;;;;1.60;1.50;;;;;;;;;;5075942;28;20055;-78
2023/03/21 01:43:26;;;;;;;1.83;1.30;;;;;;;;;;5094516;28;20028;-78
2023/03/21 01:46:09;;;;;;;1.90;1.63;;;;;;;;;;5094242;28;20459;-78
2023/03/21 01:48:41;;;;;;;1.40;1.30;;;;;;;;;;5093888;28;20105;-78
2023/03/21 01:51:10;;;;;;;2.88;1.42;;;;;;;;;;5092950;28;20458;-78
2023/03/21 01:53:37;;;;;;;1.60;1.50;;;;;;;;;;5092682;28;20028;-78
2023/03/21 01:56:07;;;;;;;1.50;1.40;;;;;;;;;;5092590;28;20386;-78
2023/03/21 01:58:34;;;;;;;1.60;1.50;;;;;;;;;;5092497;28;20027;-78
2023/03/21 02:00:59;;;;;;;1.40;1.30;;;;;;;;;;5092588;28;20115;-78
2023/03/21 02:03:28;;;;;;;1.58;1.45;;;;;;;;;;5092613;28;20105;-78
2023/03/21 02:06:10;;;;;;;3.92;1.60;;;;;;;;;;5092487;28;20471;-78
2023/03/21 02:08:36;;;;;;;11.25;1.70;;;;;;;;;;5075319;28;20020;-78
2023/03/21 02:11:02;;;;;;;1.65;1.55;;;;;;;;;;5092149;28;20102;-78
2023/03/21 02:13:27;;;;;;;2.38;1.77;;;;;;;;;;5093429;28;20078;-78
2023/03/21 02:15:58;;;;;;;2.42;1.88;;;;;;;;;;5093065;28;20032;-78
2023/03/21 02:18:26;;;;;;;1.95;1.70;;;;;;;;;;5092166;28;20532;-77
2023/03/21 02:21:18;;;;;;;1.67;1.58;;;;;;;;;;5075247;28;20101;-78
2023/03/21 02:24:08;;;;;;;2.55;1.80;;;;;;;;;;5074978;28;20344;-78
2023/03/21 02:26:42;;;;;;;1.70;1.60;;;;;;;;;;5092006;28;20039;-78
2023/03/21 02:29:20;;;;;;;1.92;1.75;;;;;;;;;;5093330;28;20537;-78
2023/03/21 02:31:49;;;;;;;2.03;1.80;;;;;;;;;;5091996;28;20031;-78
2023/03/21 02:34:28;;;;;;;2.10;1.90;;;;;;;;;;5093417;28;20024;-78
2023/03/21 02:37:00;;;;;;;2.30;2.00;;;;;;;;;;5074829;28;20048;-78
2023/03/21 02:39:30;;;;;;;2.67;2.03;;;;;;;;;;5091979;28;20135;-78
2023/03/21 02:42:12;;;;;;;3.17;2.05;;;;;;;;;;5075052;28;20028;-78
2023/03/21 02:44:47;;;;;;;2.30;2.10;;;;;;;;;;5074924;28;20028;-78
2023/03/21 02:47:25;;;;;;;2.30;2.10;;;;;;;;;;5092183;28;20024;-78
2023/03/21 02:49:57;;;;;;;3.03;2.03;;;;;;;;;;5097504;28;20048;-78
2023/03/21 02:52:27;;;;;;;2.63;2.20;;;;;;;;;;5098745;28;20020;-78
2023/03/21 02:54:54;;;;;;;2.50;2.10;;;;;;;;;;5081809;28;20099;-78
2023/03/21 02:57:20;;;;;;;4.55;2.28;;;;;;;;;;5098431;28;20089;-78
2023/03/21 02:59:48;;;;;;;3.45;2.72;;;;;;;;;;5099882;28;20115;-78
2023/03/21 03:02:14;;;;;;;3.42;2.47;;;;;;;;;;5098571;28;20020;-78
2023/03/21 03:04:40;;;;;;;3.05;2.60;;;;;;;;;;5098375;28;20393;-78
2023/03/21 03:07:24;;;;;;;3.78;2.30;;;;;;;;;;5099462;28;20032;-78
2023/03/21 03:10:14;;;;;;;3.22;2.08;;;;;;;;;;5098389;28;20089;-78
2023/03/21 03:13:19;;;;;;;3.90;2.35;;;;;;;;;;5098309;28;20449;-78
2023/03/21 03:16:09;;;;;;;3.38;2.28;;;;;;;;;;5089490;28;20040;-78
2023/03/21 03:18:49;;;;;;;4.07;2.55;;;;;;;;;;5099520;28;20027;-77
2023/03/21 03:21:14;;;;;;;4.50;2.40;;;;;;;;;;5098574;28;20048;-78
2023/03/21 03:23:44;;;;;;;4.43;2.60;;;;;;;;;;5098307;28;20047;-78
2023/03/21 03:26:15;;;;;;;4.15;2.55;;;;;;;;;;5098120;28;20023;-78
2023/03/21 03:28:45;;;;;;;3.90;2.63;;;;;;;;;;5097033;28;20020;-78
2023/03/21 03:31:13;;;;;;;6.97;2.60;;;;;;;;;;5098141;28;20406;-79
2023/03/21 03:33:42;;;;;;;3.00;2.50;;;;;;;;;;5090232;28;20032;-78
2023/03/21 03:36:10;;;;;;;4.03;2.45;;;;;;;;;;5097039;28;20073;-78
2023/03/21 03:38:37;;;;;;;4.05;2.55;;;;;;;;;;5080953;28;20044;-78
2023/03/21 03:41:13;;;;;;;3.08;2.50;;;;;;;;;;5064522;28;20027;-78
2023/03/21 03:43:43;;;;;;;3.42;2.50;;;;;;;;;;5064335;28;20019;-78
2023/03/21 03:46:16;;;;;;;4.63;2.53;;;;;;;;;;5081195;28;20123;-78
2023/03/21 03:48:47;;;;;;;2.50;2.30;;;;;;;;;;5081101;28;20044;-78
2023/03/21 03:51:21;;;;;;;3.83;2.67;;;;;;;;;;5081381;28;20271;-78
2023/03/21 03:54:19;;;;;;;;;;;;;;;;;;5081464;28;20020;-78
2023/03/21 03:56:45;;;;;;;4.50;2.40;;;;;;;;;;5026642;28;19908;-78
2023/03/21 03:59:11;;;;;;;4.10;2.35;;;;;;;;;;5081054;28;20031;-79
2023/03/21 04:01:36;;;;;;;4.53;2.85;;;;;;;;;;5077196;28;20024;-78
2023/03/21 04:04:02;;;;;;;2.75;2.42;;;;;;;;;;5096059;28;20028;-78
2023/03/21 04:06:27;;;;;;;3.10;2.63;;;;;;;;;;5096111;28;20032;-78
2023/03/21 04:08:56;;;;;;;5.43;2.85;;;;;;;;;;5060941;28;20027;-78
2023/03/21 04:11:22;;;;;;;3.20;2.60;;;;;;;;;;5077562;28;20136;-78
2023/03/21 04:13:47;;;;;;;3.33;2.67;;;;;;;;;;5044262;28;20130;-78
2023/03/21 04:16:13;;;;;;;5.07;2.45;;;;;;;;;;5096626;28;20043;-78
2023/03/21 04:18:39;;;;;;;3.60;2.83;;;;;;;;;;5060695;28;20085;-79
2023/03/21 04:21:09;;;;;;;4.35;2.60;;;;;;;;;;5077573;28;20162;-78
2023/03/21 04:23:35;;;;;;;3.30;2.28;;;;;;;;;;5077487;28;20031;-79
2023/03/21 04:26:01;;;;;;;4.47;2.70;;;;;;;;;;5078074;28;20024;-79
2023/03/21 04:28:26;;;;;;;3.72;2.60;;;;;;;;;;5095492;28;20474;-78
2023/03/21 04:30:52;;;;;;;3.53;2.40;;;;;;;;;;5095903;28;20063;-79
2023/03/21 04:33:18;;;;;;;4.38;3.05;;;;;;;;;;5095731;28;20059;-78
2023/03/21 04:35:45;;;;;;;3.05;2.50;;;;;;;;;;5077428;28;20140;-79
2023/03/21 04:38:10;;;;;;;3.53;2.40;;;;;;;;;;5095521;28;20031;-78
2023/03/21 04:40:36;;;;;;;4.97;2.80;;;;;;;;;;5060314;28;20032;-78
2023/03/21 04:43:01;;;;;;;3.97;2.63;;;;;;;;;;5095266;28;20335;-78
2023/03/21 04:45:27;;;;;;;3.70;2.38;;;;;;;;;;5043751;28;20039;-78
2023/03/21 04:47:52;;;;;;;3.38;2.30;;;;;;;;;;5077132;28;20058;-78
2023/03/21 04:50:17;;;;;;;3.50;2.72;;;;;;;;;;5076941;28;20052;-78
2023/03/21 04:52:43;;;;;;;3.97;2.70;;;;;;;;;;5095125;28;20058;-78
2023/03/21 04:55:09;;;;;;;4.82;2.30;;;;;;;;;;5095573;28;20462;-78
2023/03/21 04:57:37;;;;;;;5.10;2.40;;;;;;;;;;5076936;28;20039;-79
2023/03/21 05:00:08;;;;;;;3.40;2.20;;;;;;;;;;5077035;28;20024;-79
2023/03/21 05:02:33;;;;;;;3.53;2.42;;;;;;;;;;5077625;28;20066;-79
2023/03/21 05:04:59;;;;;;;4.90;2.80;;;;;;;;;;5077181;28;20501;-78
2023/03/21 05:07:25;;;;;;;4.13;2.40;;;;;;;;;;5044258;28;20115;-79
2023/03/21 05:09:51;;;;;;;5.35;3.00;;;;;;;;;;5078044;28;20387;-79
2023/03/21 05:12:18;;;;;;;5.25;3.17;;;;;;;;;;5060093;28;20032;-79
2023/03/21 05:14:43;;;;;;;14.35;3.70;;;;;;;;;;5060848;28;20055;-78
2023/03/21 05:17:09;;;;;;;6.97;3.65;;;;;;;;;;5077231;28;20471;-78
2023/03/21 05:19:34;;;;;;;6.88;3.20;;;;;;;;;;5094909;28;20024;-78
2023/03/21 05:22:05;;;;;;;5.63;2.83;;;;;;;;;;5060177;28;20028;-78
2023/03/21 05:24:31;;;;;;;7.60;2.92;;;;;;;;;;5060103;28;20035;-78
2023/03/21 05:27:00;;;;;;;8.88;3.28;;;;;;;;;;5077402;28;20023;-79
2023/03/21 05:29:27;;;;;;;5.63;2.90;;;;;;;;;;5060591;28;20024;-78
2023/03/21 05:31:52;;;;;;;4.57;3.25;;;;;;;;;;5076551;28;20020;-78
2023/03/21 05:34:18;;;;;;;7.18;3.10;;;;;;;;;;5060338;28;20024;-78
2023/03/21 05:36:43;;;;;;;15.27;5.20;;;;;;;;;;5059747;28;20032;-78
2023/03/21 05:39:08;;;;;;;14.45;5.07;;;;;;;;;;5094414;28;20028;-76
2023/03/21 05:41:34;;;;;;;15.50;4.85;;;;;;;;;;5059567;28;20036;-77
2023/03/21 05:43:59;;;;;;;12.18;4.43;;;;;;;;;;5094179;28;20032;-77
2023/03/21 05:46:25;;;;;;;10.20;4.05;;;;;;;;;;5076555;28;20491;-77
2023/03/21 05:48:51;;;;;;;8.85;3.33;;;;;;;;;;5076260;28;20072;-77
2023/03/21 05:51:17;;;;;;;9.32;3.92;;;;;;;;;;5093936;28;20399;-78
2023/03/21 05:53:42;;;;;;;5.93;3.45;;;;;;;;;;5075808;28;20030;-78
2023/03/21 05:56:08;;;;;;;7.57;3.50;;;;;;;;;;5059160;28;20028;-78
2023/03/21 05:58:33;;;;;;;13.40;3.60;;;;;;;;;;5094193;28;20024;-84
2023/03/21 06:00:59;;;;;;;7.65;3.80;;;;;;;;;;5059519;28;20467;-79
2023/03/21 06:03:24;;;;;;;18.35;4.85;;;;;;;;;;5095719;28;20032;-83
2023/03/21 06:05:50;;;;;;;35.85;6.25;;;;;;;;;;5042904;28;20032;-84
2023/03/21 06:08:15;;;;;;;20.02;5.80;;;;;;;;;;5075654;28;20110;-84
2023/03/21 06:10:41;;;;;;;18.98;5.47;;;;;;;;;;5075890;28;20024;-83
2023/03/21 06:13:06;;;;;;;19.92;5.75;;;;;;;;;;5075751;28;20027;-83
2023/03/21 06:15:31;;;;;;;17.92;6.05;;;;;;;;;;5075702;28;20364;-83
2023/03/21 06:17:57;;;;;;;13.63;5.57;;;;;;;;;;5075909;28;20027;-80
2023/03/21 06:20:22;;;;;;;22.55;5.53;;;;;;;;;;5058745;28;20500;-81
2023/03/21 06:22:48;;;;;;;17.15;5.85;;;;;;;;;;5075221;28;20488;-81
2023/03/21 06:25:13;;;;;;;16.58;4.68;;;;;;;;;;5058607;28;20032;-81
2023/03/21 06:27:39;;;;;;;15.65;5.10;;;;;;;;;;5042241;28;20504;-81
2023/03/21 06:30:05;;;;;;;14.15;4.70;;;;;;;;;;5094347;28;20039;-81
2023/03/21 06:32:31;;;;;;;17.52;4.72;;;;;;;;;;5058759;28;20039;-81
2023/03/21 06:34:56;;;;;;;15.07;5.00;;;;;;;;;;5059054;28;20024;-81
2023/03/21 06:37:22;;;;;;;13.27;4.70;;;;;;;;;;5041907;28;20032;-80
2023/03/21 06:39:48;;;;;;;13.70;4.82;;;;;;;;;;5075770;28;20027;-81
2023/03/21 06:42:13;;;;;;;9.60;3.80;;;;;;;;;;5075624;28;20024;-80
2023/03/21 06:44:39;;;;;;;12.38;4.40;;;;;;;;;;5058639;28;20036;-80
2023/03/21 06:47:05;;;;;;;9.85;4.28;;;;;;;;;;5042093;28;20024;-80
2023/03/21 06:49:30;;;;;;;13.32;4.38;;;;;;;;;;5074931;28;20047;-80
2023/03/21 06:51:56;;;;;;;13.00;4.22;;;;;;;;;;5093327;28;20028;-80
2023/03/21 06:54:21;;;;;;;12.23;4.57;;;;;;;;;;5075412;28;20031;-81
2023/03/21 06:56:47;;;;;;;7.75;3.42;;;;;;;;;;5075448;28;20478;-81
2023/03/21 06:59:12;;;;;;;8.02;3.65;;;;;;;;;;5075213;28;20372;-82
2023/03/21 07:01:38;;;;;;;11.65;4.28;;;;;;;;;;5058465;28;20486;-82
2023/03/21 07:04:05;;;;;;;9.70;4.00;;;;;;;;;;5075388;28;20405;-82
2023/03/21 07:06:30;;;;;;;10.30;3.88;;;;;;;;;;5093587;28;20424;-82
2023/03/21 07:08:56;;;;;;;9.65;3.53;;;;;;;;;;5075696;28;20028;-81
2023/03/21 07:11:23;;;;;;;6.53;3.05;;;;;;;;;;5075136;28;20134;-81
2023/03/21 07:13:48;;;;;;;8.13;3.50;;;;;;;;;;5058657;28;20035;-81
2023/03/21 07:16:15;;;;;;;7.90;3.90;;;;;;;;;;5075682;28;20040;-82
2023/03/21 07:18:41;;;;;;;6.25;2.80;;;;;;;;;;5076625;28;20065;-82
2023/03/21 07:21:06;;;;;;;9.18;3.35;;;;;;;;;;5058966;28;20035;-82
2023/03/21 07:23:32;;;;;;;8.13;3.50;;;;;;;;;;5043379;28;20501;-82
2023/03/21 07:25:57;;;;;;;8.50;3.28;;;;;;;;;;5095629;28;20032;-83
2023/03/21 07:28:23;;;;;;;9.43;3.47;;;;;;;;;;5075525;28;20495;-82
2023/03/21 07:31:01;;;;;;;7.07;3.35;;;;;;;;;;5058331;28;20035;-81
2023/03/21 07:33:27;;;;;;;6.15;3.25;;;;;;;;;;5075190;28;20035;-82
2023/03/21 07:35:54;;;;;;;5.40;3.17;;;;;;;;;;5059999;28;20028;-82
2023/03/21 07:38:20;;;;;;;7.45;3.03;;;;;;;;;;5062280;28;20115;-82
2023/03/21 07:40:47;;;;;;;5.57;2.78;;;;;;;;;;5062477;28;20107;-82
2023/03/21 07:43:13;;;;;;;7.60;3.28;;;;;;;;;;5078912;28;20031;-82
2023/03/21 07:45:39;;;;;;;5.13;2.80;;;;;;;;;;5062034;28;20459;-82
2023/03/21 07:48:04;;;;;;;5.38;2.95;;;;;;;;;;5096532;28;20055;-81
2023/03/21 07:50:31;;;;;;;6.57;2.88;;;;;;;;;;5078671;28;20048;-81
2023/03/21 07:52:56;;;;;;;4.32;2.35;;;;;;;;;;5061611;28;20036;-82
2023/03/21 07:55:22;;;;;;;4.82;2.72;;;;;;;;;;5078618;28;20402;-81
2023/03/21 07:57:51;;;;;;;7.05;2.80;;;;;;;;;;5096613;28;20036;-81
2023/03/21 08:00:22;;;;;;;5.85;2.50;;;;;;;;;;5061430;28;20032;-81
2023/03/21 08:02:53;;;;;;;3.72;2.38;;;;;;;;;;5096173;28;20032;-83
2023/03/21 08:05:20;;;;;;;4.05;2.58;;;;;;;;;;5061558;28;20027;-83
2023/03/21 08:07:46;;;;;;;5.35;2.92;;;;;;;;;;5077981;28;20031;-83
2023/03/21 08:10:12;;;;;;;5.32;2.67;;;;;;;;;;5078417;28;20050;-83
2023/03/21 08:12:37;;;;;;;4.88;2.30;;;;;;;;;;5078048;28;20020;-83
2023/03/21 08:15:03;;;;;;;4.53;2.25;;;;;;;;;;5096514;28;20024;-82
2023/03/21 08:17:28;;;;;;;6.10;2.70;;;;;;;;;;5062150;28;20105;-83
2023/03/21 08:19:54;;;;;;;4.45;2.60;;;;;;;;;;5095857;28;20173;-82
2023/03/21 08:22:19;;;;;;;5.88;2.63;;;;;;;;;;5077745;28;20032;-83
2023/03/21 08:24:44;;;;;;;5.68;2.70;;;;;;;;;;5077745;28;20035;-82
2023/03/21 08:27:10;;;;;;;4.93;2.30;;;;;;;;;;5077667;28;20039;-83
2023/03/21 08:29:39;;;;;;;4.32;2.22;;;;;;;;;;5095812;28;20107;-83
2023/03/21 08:32:05;;;;;;;7.97;2.63;;;;;;;;;;5078402;28;20043;-83
2023/03/21 08:34:31;;;;;;;7.22;3.10;;;;;;;;;;5060937;28;20024;-83
2023/03/21 08:36:56;;;;;;;4.50;2.75;;;;;;;;;;5095618;28;20077;-83
2023/03/21 08:39:23;;;;;;;5.07;2.40;;;;;;;;;;5079687;28;20028;-82
2023/03/21 08:41:49;;;;;;;4.72;2.50;;;;;;;;;;5077450;28;20112;-82
2023/03/21 08:44:15;;;;;;;4.75;2.42;;;;;;;;;;5077138;28;20035;-82
2023/03/21 08:46:41;;;;;;;5.18;2.75;;;;;;;;;;5077193;28;20024;-82
2023/03/21 08:49:07;;;;;;;4.50;2.45;;;;;;;;;;5077084;28;20139;-81
2023/03/21 08:51:32;;;;;;;4.68;2.25;;;;;;;;;;5077604;28;20046;-82
2023/03/21 08:53:58;;;;;;;4.28;2.45;;;;;;;;;;5077095;28;20463;-81
2023/03/21 08:56:23;;;;;;;4.47;2.22;;;;;;;;;;5060634;28;20028;-81
2023/03/21 08:58:49;;;;;;;4.05;2.30;;;;;;;;;;5095107;28;20475;-82
2023/03/21 09:01:14;;;;;;;5.03;2.88;;;;;;;;;;5095754;28;20097;-82
2023/03/21 09:03:40;;;;;;;5.38;2.70;;;;;;;;;;5095483;28;20356;-82
2023/03/21 09:06:09;;;;;;;4.72;2.38;;;;;;;;;;5060721;28;20027;-82
2023/03/21 09:08:38;;;;;;;3.70;2.10;;;;;;;;;;5095473;28;20031;-82
2023/03/21 09:11:03;;;;;;;7.18;2.40;;;;;;;;;;5077091;28;20053;-80
2023/03/21 09:13:29;;;;;;;3.85;2.40;;;;;;;;;;5077118;28;20028;-83
2023/03/21 09:15:56;;;;;;;3.58;2.10;;;;;;;;;;5060338;28;20031;-82
2023/03/21 09:18:44;;;;;;;5.88;2.53;;;;;;;;;;5060260;28;20458;-83
2023/03/21 09:21:11;;;;;;;4.35;1.90;;;;;;;;;;5079435;28;20479;-82
2023/03/21 09:23:38;;;;;;;6.88;2.30;;;;;;;;;;5094844;28;20024;-84
2023/03/21 09:26:04;;;;;;;7.38;1.92;;;;;;;;;;5059861;28;20028;-83
2023/03/21 09:28:30;;;;;;;4.60;2.30;;;;;;;;;;5076506;28;20160;-82
2023/03/21 09:30:59;;;;;;;3.67;2.15;;;;;;;;;;5076872;28;20470;-83
2023/03/21 09:33:26;;;;;;;3.88;1.83;;;;;;;;;;5077199;28;20028;-82
2023/03/21 09:35:53;;;;;;;5.55;2.17;;;;;;;;;;5079627;28;20146;-80
2023/03/21 09:38:18;;;;;;;4.47;2.28;;;;;;;;;;5077210;28;20043;-81
2023/03/21 09:40:53;;;;;;;4.35;2.40;;;;;;;;;;5076622;28;20429;-83
2023/03/21 09:43:27;;;;;;;2.85;1.92;;;;;;;;;;5094521;28;20028;-82
2023/03/21 09:46:02;;;;;;;4.47;2.00;;;;;;;;;;5094406;28;20039;-83
2023/03/21 09:48:35;;;;;;;5.20;2.10;;;;;;;;;;5075996;28;20148;-82
2023/03/21 09:51:02;;;;;;;3.28;2.10;;;;;;;;;;5059355;28;20493;-82
2023/03/21 09:53:38;;;;;;;2.65;1.90;;;;;;;;;;5094072;28;20036;-82
2023/03/21 09:56:05;;;;;;;5.07;1.95;;;;;;;;;;5076294;28;20012;-82
2023/03/21 09:58:49;;;;;;;4.55;2.28;;;;;;;;;;5076712;28;20036;-83
2023/03/21 10:01:31;;;;;;;5.05;2.28;;;;;;;;;;5059650;28;20036;-83
2023/03/21 10:04:02;;;;;;;3.42;2.10;;;;;;;;;;5078370;28;20039;-83
2023/03/21 10:06:29;;;;;;;4.00;2.00;;;;;;;;;;5076167;28;20074;-83
2023/03/21 10:09:24;;;;;;;2.97;1.90;;;;;;;;;;5059928;28;20025;-83
2023/03/21 10:11:56;;;;;;;4.13;2.20;;;;;;;;;;5038517;28;20079;-82
2023/03/21 10:14:35;;;;;;;3.20;1.90;;;;;;;;;;5075659;28;20077;-83
2023/03/21 10:17:39;;;;;;;3.42;2.05;;;;;;;;;;5076119;28;20493;-81
2023/03/21 10:20:16;;;;;;;4.03;1.77;;;;;;;;;;5076777;28;20028;-83
2023/03/21 10:22:44;;;;;;;3.08;1.77;;;;;;;;;;5093587;28;20494;-83
2023/03/21 10:25:15;;;;;;;3.97;2.03;;;;;;;;;;5058923;28;20407;-83
2023/03/21 10:27:40;;;;;;;6.28;2.17;;;;;;;;;;5058730;28;20016;-81
2023/03/21 10:30:09;;;;;;;3.72;1.88;;;;;;;;;;5093913;28;20111;-83
2023/03/21 10:32:34;;;;;;;3.70;2.03;;;;;;;;;;5075650;28;20016;-83
2023/03/21 10:35:00;;;;;;;5.78;2.20;;;;;;;;;;5060318;28;20100;-83
2023/03/21 10:37:26;;;;;;;3.08;2.05;;;;;;;;;;5075541;28;20518;-83
2023/03/21 10:39:53;;;;;;;2.30;1.75;;;;;;;;;;5075408;28;20030;-83
2023/03/21 10:42:24;;;;;;;4.25;1.95;;;;;;;;;;5075394;28;20063;-82
2023/03/21 10:44:52;;;;;;;3.78;1.83;;;;;;;;;;5075250;28;20164;-82
2023/03/21 10:47:23;;;;;;;4.05;1.90;;;;;;;;;;5075401;28;20023;-83
2023/03/21 10:49:49;;;;;;;4.38;1.90;;;;;;;;;;5058758;28;20055;-83
2023/03/21 10:52:18;;;;;;;4.43;2.15;;;;;;;;;;5041982;28;20028;-83
2023/03/21 10:54:44;;;;;;;2.63;1.92;;;;;;;;;;5075656;28;20050;-83
2023/03/21 10:57:21;;;;;;;5.20;2.05;;;;;;;;;;5075823;28;20111;-83
2023/03/21 10:59:52;;;;;;;3.50;2.10;;;;;;;;;;5058901;28;20031;-83
2023/03/21 11:02:32;;;;;;;4.25;1.75;;;;;;;;;;5077307;28;20028;-82
2023/03/21 11:05:04;;;;;;;3.25;1.80;;;;;;;;;;5075248;28;20467;-83
2023/03/21 11:07:30;;;;;;;3.92;1.85;;;;;;;;;;5093320;28;20462;-83
2023/03/21 11:09:59;;;;;;;6.07;1.90;;;;;;;;;;5060055;28;20028;-83
2023/03/21 11:12:36;;;;;;;6.63;2.00;;;;;;;;;;5079288;28;20031;-84
2023/03/21 11:15:31;;;;;;;3.97;1.83;;;;;;;;;;5080535;28;20020;-84
2023/03/21 11:18:13;;;;;;;3.03;1.80;;;;;;;;;;5064856;28;20020;-83
2023/03/21 11:20:43;;;;;;;3.50;1.90;;;;;;;;;;5079669;28;20517;-81
2023/03/21 11:23:11;;;;;;;7.05;2.10;;;;;;;;;;5062365;28;20482;-81
2023/03/21 11:25:38;;;;;;;2.22;1.70;;;;;;;;;;5062314;28;20077;-82
2023/03/21 11:28:07;;;;;;;4.80;2.40;;;;;;;;;;5079220;28;20036;-82
2023/03/21 11:30:33;;;;;;;3.97;1.90;;;;;;;;;;5079299;28;20016;-82
2023/03/21 11:33:02;;;;;;;3.33;1.95;;;;;;;;;;5045928;28;20043;-82
2023/03/21 11:35:33;;;;;;;3.92;1.85;;;;;;;;;;5078942;28;20043;-82
2023/03/21 11:37:58;;;;;;;2.33;1.60;;;;;;;;;;5097430;28;20081;-82
2023/03/21 11:40:28;;;;;;;3.60;1.80;;;;;;;;;;5079149;28;20024;-82
2023/03/21 11:42:57;;;;;;;4.75;1.90;;;;;;;;;;5078756;28;20020;-82
2023/03/21 11:45:34;;;;;;;3.22;1.90;;;;;;;;;;5062492;28;20124;-83
2023/03/21 11:48:01;;;;;;;4.82;1.98;;;;;;;;;;5097635;28;20028;-84
2023/03/21 11:50:35;;;;;;;4.93;1.83;;;;;;;;;;5063224;28;20559;-83
2023/03/21 11:53:10;;;;;;;5.35;1.80;;;;;;;;;;5079263;28;20473;-84
2023/03/21 11:56:12;;;;;;;4.20;1.85;;;;;;;;;;5097450;28;20027;-83
2023/03/21 11:58:44;;;;;;;3.88;1.83;;;;;;;;;;5098278;28;20024;-82
2023/03/21 12:01:27;;;;;;;3.72;1.90;;;;;;;;;;5078929;28;20024;-82
2023/03/21 12:04:03;;;;;;;2.97;1.73;;;;;;;;;;5078752;28;20024;-84
2023/03/21 12:06:41;;;;;;;6.53;1.80;;;;;;;;;;5097248;28;20035;-84
2023/03/21 12:09:28;;;;;;;7.03;2.13;;;;;;;;;;5079041;28;20472;-82
2023/03/21 12:12:08;;;;;;;5.07;1.70;;;;;;;;;;5061553;28;20078;-84
2023/03/21 12:14:59;;;;;;;7.07;2.10;;;;;;;;;;5096377;28;20077;-85
2023/03/21 12:17:52;;;;;;;4.65;1.90;;;;;;;;;;5066570;28;20475;-85
2023/03/21 12:20:36;;;;;;;5.05;1.83;;;;;;;;;;5096265;28;20024;-83
2023/03/21 12:23:39;;;;;;;3.40;1.60;;;;;;;;;;5077720;28;20069;-84
2023/03/21 12:26:13;;;;;;;4.35;1.63;;;;;;;;;;5077949;28;20110;-85
2023/03/21 12:28:44;;;;;;;4.18;1.95;;;;;;;;;;5061395;28;20068;-85
2023/03/21 12:31:28;;;;;;;3.45;1.70;;;;;;;;;;5078258;28;20042;-85
2023/03/21 12:33:56;;;;;;;;;;;;;;;;;;5061931;28;20081;-85
2023/03/21 12:36:28;;;;;;;2.55;1.50;;;;;;;;;;5098126;28;19961;-86
2023/03/21 12:39:17;;;;;;;5.03;1.90;;;;;;;;;;5077650;28;20581;-86
2023/03/21 12:41:51;;;;;;;4.20;1.70;;;;;;;;;;5078623;28;20366;-85
2023/03/21 12:44:21;;;;;;;3.05;1.58;;;;;;;;;;5077311;28;20051;-85
2023/03/21 12:46:52;;;;;;;3.78;2.05;;;;;;;;;;5078084;28;20035;-85
2023/03/21 12:49:29;;;;;;;3.58;1.92;;;;;;;;;;5060594;28;20105;-87
2023/03/21 12:52:03;;;;;;;4.75;1.70;;;;;;;;;;5095430;28;20111;-86
2023/03/21 12:55:13;;;;;;;5.13;2.03;;;;;;;;;;5077365;28;20099;-86
2023/03/21 12:57:44;;;;;;;5.32;1.92;;;;;;;;;;5096001;28;20494;-86
2023/03/21 13:00:20;;;;;;;3.38;1.58;;;;;;;;;;5078017;28;20035;-87
2023/03/21 13:02:54;;;;;;;6.55;2.03;;;;;;;;;;5060822;28;20497;-85
2023/03/21 13:05:26;;;;;;;3.75;1.95;;;;;;;;;;5060608;28;20092;-85
2023/03/21 13:08:30;;;;;;;2.47;1.50;;;;;;;;;;5095680;28;20026;-87
2023/03/21 13:10:56;;;;;;;3.75;2.00;;;;;;;;;;5030907;28;20032;-86
2023/03/21 13:13:25;;;;;;;3.90;1.70;;;;;;;;;;5061770;28;20028;-86
2023/03/21 13:15:51;;;;;;;2.55;1.98;;;;;;;;;;5078770;28;20024;-84
2023/03/21 13:18:47;;;;;;;5.35;2.55;;;;;;;;;;5077428;28;20024;-86
2023/03/21 13:21:42;;;;;;;6.72;1.80;;;;;;;;;;5095400;28;20024;-85
2023/03/21 13:24:37;;;;;;;4.68;1.60;;;;;;;;;;5060101;28;20020;-85
2023/03/21 13:27:24;;;;;;;2.75;1.88;;;;;;;;;;5060035;28;20024;-86
2023/03/21 13:29:52;;;;;;;5.97;2.13;;;;;;;;;;5080767;28;20152;-86
2023/03/21 13:32:26;;;;;;;3.05;1.73;;;;;;;;;;5077293;28;20099;-85
2023/03/21 13:35:11;;;;;;;4.78;2.03;;;;;;;;;;5076800;28;20066;-89
2023/03/21 13:37:42;;;;;;;3.88;1.80;;;;;;;;;;5076879;28;20473;-87
2023/03/21 13:40:34;;;;;;;3.50;2.10;;;;;;;;;;5076743;28;20477;-87
2023/03/21 13:43:02;;;;;;;7.20;1.92;;;;;;;;;;5076886;28;20077;-88
2023/03/21 13:45:45;;;;;;;4.60;1.95;;;;;;;;;;5077166;28;20035;-88
2023/03/21 13:48:31;;;;;;;4.53;1.73;;;;;;;;;;5077939;28;20019;-88
2023/03/21 13:51:01;;;;;;;3.88;1.80;;;;;;;;;;5080400;28;20032;-87
2023/03/21 13:54:02;;;;;;;3.67;2.05;;;;;;;;;;5080534;28;20024;-88
2023/03/21 13:56:29;;;;;;;4.72;1.88;;;;;;;;;;5098322;28;20052;-89
2023/03/21 13:59:02;;;;;;;5.35;1.90;;;;;;;;;;5078407;28;20027;-88
2023/03/21 14:01:40;;;;;;;7.85;2.10;;;;;;;;;;5060290;28;20118;-88
2023/03/21 14:04:12;;;;;;;4.65;1.80;;;;;;;;;;5059979;28;20058;-88
2023/03/21 14:06:58;;;;;;;6.03;1.70;;;;;;;;;;5076831;28;20490;-86
2023/03/21 14:09:43;;;;;;;4.88;2.00;;;;;;;;;;5059329;28;20375;-86
2023/03/21 14:12:30;;;;;;;9.50;2.65;;;;;;;;;;5059121;28;20039;-86
2023/03/21 14:15:02;;;;;;;3.88;2.30;;;;;;;;;;5058677;28;20459;-86
2023/03/21 14:17:33;;;;;;;4.65;1.90;;;;;;;;;;5059237;28;20114;-88
2023/03/21 14:20:01;;;;;;;5.13;2.00;;;;;;;;;;5076178;28;20433;-86
2023/03/21 14:22:28;;;;;;;4.50;1.88;;;;;;;;;;5076575;28;20102;-87
2023/03/21 14:24:59;;;;;;;5.55;2.00;;;;;;;;;;5060953;28;20030;-89
2023/03/21 14:27:28;;;;;;;5.22;2.10;;;;;;;;;;5076053;28;20015;-90
2023/03/21 14:29:55;;;;;;;6.50;1.80;;;;;;;;;;5059135;28;20482;-86
2023/03/21 14:32:25;;;;;;;2.80;1.83;;;;;;;;;;5058880;28;20077;-88
2023/03/21 14:34:52;;;;;;;4.30;2.13;;;;;;;;;;5059031;28;20132;-88
2023/03/21 14:37:39;;;;;;;4.80;2.22;;;;;;;;;;5075761;28;20024;-88
2023/03/21 14:40:15;;;;;;;4.03;1.90;;;;;;;;;;5075662;28;20528;-88
2023/03/21 14:42:45;;;;;;;4.60;2.05;;;;;;;;;;5076205;28;20028;-89
2023/03/21 14:45:19;;;;;;;4.97;2.20;;;;;;;;;;5058125;28;20036;-87
2023/03/21 14:48:04;;;;;;;4.03;2.20;;;;;;;;;;5094179;28;20031;-88
2023/03/21 14:50:47;;;;;;;4.97;2.22;;;;;;;;;;5058819;28;20503;-88
2023/03/21 14:53:26;;;;;;;5.82;2.35;;;;;;;;;;5094125;28;20027;-87
2023/03/21 14:56:06;;;;;;;3.17;1.95;;;;;;;;;;5093712;28;20467;-87
2023/03/21 14:58:33;;;;;;;4.13;2.10;;;;;;;;;;5093670;28;20066;-89
2023/03/21 15:01:03;;;;;;;4.18;2.38;;;;;;;;;;5075951;28;20024;-86
2023/03/21 15:03:29;;;;;;;2.40;1.65;;;;;;;;;;5075782;28;20035;-84